sensor_id;sensor_type;location;lat;lon;timestamp;P1;durP1;ratioP1;P2;durP2;ratioP2
27412;SDS011;14871;52.702;5.230;2023-01-26T00:00:50;75.68;;;33.72;;
27412;SDS011;14871;52.702;5.230;2023-01-26T00:03:16;76.88;;;33.63;;
27412;SDS011;14871;52.702;5.230;2023-01-26T00:05:42;76.60;;;30.73;;
27412;SDS011;14871;52.702;5.230;2023-01-26T00:08:07;77.45;;;31.90;;
27412;SDS011;14871;52.702;5.230;2023-01-26T00:10:37;74.78;;;33.30;;
27412;SDS011;14871;52.702;5.230;2023-01-26T00:13:05;78.30;;;32.47;;
27412;SDS011;14871;52.702;5.230;2023-01-26T00:15:31;71.18;;;27.58;;
27412;SDS011;14871;52.702;5.230;2023-01-26T00:17:58;74.90;;;30.75;;
27412;SDS011;14871;52.702;5.230;2023-01-26T00:20:24;80.88;;;33.85;;
27412;SDS011;14871;52.702;5.230;2023-01-26T00:22:51;75.00;;;30.00;;
27412;SDS011;14871;52.702;5.230;2023-01-26T00:25:16;76.13;;;30.90;;
27412;SDS011;14871;52.702;5.230;2023-01-26T00:27:42;76.47;;;30.27;;
27412;SDS011;14871;52.702;5.230;2023-01-26T00:30:07;77.88;;;32.78;;
27412;SDS011;14871;52.702;5.230;2023-01-26T00:32:34;81.80;;;33.38;;
27412;SDS011;14871;52.702;5.230;2023-01-26T00:35:00;76.15;;;34.13;;
27412;SDS011;14871;52.702;5.230;2023-01-26T00:37:26;81.47;;;31.55;;
27412;SDS011;14871;52.702;5.230;2023-01-26T00:39:52;77.57;;;35.28;;
27412;SDS011;14871;52.702;5.230;2023-01-26T00:42:17;73.32;;;30.88;;
27412;SDS011;14871;52.702;5.230;2023-01-26T00:44:43;75.10;;;32.28;;
27412;SDS011;14871;52.702;5.230;2023-01-26T00:47:10;75.38;;;29.52;;
27412;SDS011;14871;52.702;5.230;2023-01-26T00:49:36;83.43;;;33.83;;
27412;SDS011;14871;52.702;5.230;2023-01-26T00:52:03;82.75;;;33.78;;
27412;SDS011;14871;52.702;5.230;2023-01-26T00:54:29;88.25;;;33.92;;
27412;SDS011;14871;52.702;5.230;2023-01-26T00:56:54;83.53;;;35.05;;
27412;SDS011;14871;52.702;5.230;2023-01-26T00:59:20;78.47;;;33.90;;
27412;SDS011;14871;52.702;5.230;2023-01-26T01:01:46;86.28;;;35.33;;
27412;SDS011;14871;52.702;5.230;2023-01-26T01:04:12;87.38;;;35.88;;
27412;SDS011;14871;52.702;5.230;2023-01-26T01:06:39;80.70;;;32.60;;
27412;SDS011;14871;52.702;5.230;2023-01-26T01:09:04;84.00;;;34.30;;
27412;SDS011;14871;52.702;5.230;2023-01-26T01:11:30;76.07;;;30.92;;
27412;SDS011;14871;52.702;5.230;2023-01-26T01:13:56;83.32;;;33.25;;
27412;SDS011;14871;52.702;5.230;2023-01-26T01:16:21;81.43;;;32.22;;
27412;SDS011;14871;52.702;5.230;2023-01-26T01:18:51;88.75;;;35.60;;
27412;SDS011;14871;52.702;5.230;2023-01-26T01:21:19;86.05;;;34.85;;
27412;SDS011;14871;52.702;5.230;2023-01-26T01:23:45;88.28;;;33.63;;
27412;SDS011;14871;52.702;5.230;2023-01-26T01:26:11;86.72;;;35.35;;
27412;SDS011;14871;52.702;5.230;2023-01-26T01:28:38;86.32;;;32.67;;
27412;SDS011;14871;52.702;5.230;2023-01-26T01:31:05;85.80;;;33.53;;
27412;SDS011;14871;52.702;5.230;2023-01-26T01:33:31;83.85;;;33.35;;
27412;SDS011;14871;52.702;5.230;2023-01-26T01:35:58;84.13;;;33.47;;
27412;SDS011;14871;52.702;5.230;2023-01-26T01:38:25;84.05;;;33.60;;
27412;SDS011;14871;52.702;5.230;2023-01-26T01:40:52;82.25;;;32.28;;
27412;SDS011;14871;52.702;5.230;2023-01-26T01:43:18;78.75;;;34.15;;
27412;SDS011;14871;52.702;5.230;2023-01-26T01:45:47;85.32;;;32.78;;
27412;SDS011;14871;52.702;5.230;2023-01-26T01:51:11;74.97;;;31.13;;
27412;SDS011;14871;52.702;5.230;2023-01-26T01:53:41;83.78;;;32.90;;
27412;SDS011;14871;52.702;5.230;2023-01-26T01:56:12;78.22;;;33.05;;
27412;SDS011;14871;52.702;5.230;2023-01-26T01:58:45;71.43;;;30.83;;
27412;SDS011;14871;52.702;5.230;2023-01-26T02:01:15;81.97;;;32.40;;
27412;SDS011;14871;52.702;5.230;2023-01-26T02:03:40;74.63;;;31.80;;
27412;SDS011;14871;52.702;5.230;2023-01-26T02:06:12;79.70;;;31.05;;
27412;SDS011;14871;52.702;5.230;2023-01-26T02:11:16;76.43;;;30.67;;
27412;SDS011;14871;52.702;5.230;2023-01-26T02:13:52;75.47;;;30.48;;
27412;SDS011;14871;52.702;5.230;2023-01-26T02:16:19;70.80;;;29.83;;
27412;SDS011;14871;52.702;5.230;2023-01-26T02:18:45;73.15;;;31.58;;
27412;SDS011;14871;52.702;5.230;2023-01-26T02:21:15;70.15;;;29.63;;
27412;SDS011;14871;52.702;5.230;2023-01-26T02:24:00;70.25;;;29.30;;
27412;SDS011;14871;52.702;5.230;2023-01-26T02:26:35;67.72;;;29.05;;
27412;SDS011;14871;52.702;5.230;2023-01-26T02:29:02;63.75;;;28.58;;
27412;SDS011;14871;52.702;5.230;2023-01-26T02:31:31;67.82;;;27.80;;
27412;SDS011;14871;52.702;5.230;2023-01-26T02:33:57;71.35;;;28.63;;
27412;SDS011;14871;52.702;5.230;2023-01-26T02:36:24;61.78;;;27.38;;
27412;SDS011;14871;52.702;5.230;2023-01-26T02:38:59;68.90;;;28.13;;
27412;SDS011;14871;52.702;5.230;2023-01-26T02:41:29;69.55;;;28.25;;
27412;SDS011;14871;52.702;5.230;2023-01-26T02:44:14;63.10;;;27.97;;
27412;SDS011;14871;52.702;5.230;2023-01-26T02:46:40;66.47;;;28.58;;
27412;SDS011;14871;52.702;5.230;2023-01-26T02:49:05;66.35;;;29.20;;
27412;SDS011;14871;52.702;5.230;2023-01-26T02:51:49;58.42;;;26.85;;
27412;SDS011;14871;52.702;5.230;2023-01-26T02:54:15;61.28;;;26.70;;
27412;SDS011;14871;52.702;5.230;2023-01-26T02:56:59;61.63;;;26.48;;
27412;SDS011;14871;52.702;5.230;2023-01-26T02:59:25;64.28;;;26.75;;
27412;SDS011;14871;52.702;5.230;2023-01-26T03:01:50;58.90;;;27.15;;
27412;SDS011;14871;52.702;5.230;2023-01-26T03:04:17;63.92;;;26.70;;
27412;SDS011;14871;52.702;5.230;2023-01-26T03:06:43;58.88;;;27.30;;
27412;SDS011;14871;52.702;5.230;2023-01-26T03:09:08;62.25;;;27.60;;
27412;SDS011;14871;52.702;5.230;2023-01-26T03:11:34;55.67;;;26.42;;
27412;SDS011;14871;52.702;5.230;2023-01-26T03:14:06;60.55;;;25.25;;
27412;SDS011;14871;52.702;5.230;2023-01-26T03:16:35;59.58;;;26.55;;
27412;SDS011;14871;52.702;5.230;2023-01-26T03:19:01;60.15;;;26.15;;
27412;SDS011;14871;52.702;5.230;2023-01-26T03:21:27;55.70;;;25.73;;
27412;SDS011;14871;52.702;5.230;2023-01-26T03:24:12;56.97;;;26.25;;
27412;SDS011;14871;52.702;5.230;2023-01-26T03:26:56;54.60;;;25.40;;
27412;SDS011;14871;52.702;5.230;2023-01-26T03:29:55;61.92;;;26.30;;
27412;SDS011;14871;52.702;5.230;2023-01-26T03:32:21;56.55;;;25.27;;
27412;SDS011;14871;52.702;5.230;2023-01-26T03:34:48;62.75;;;26.65;;
27412;SDS011;14871;52.702;5.230;2023-01-26T03:37:13;55.70;;;25.08;;
27412;SDS011;14871;52.702;5.230;2023-01-26T03:39:39;56.88;;;24.15;;
27412;SDS011;14871;52.702;5.230;2023-01-26T03:42:23;56.03;;;25.08;;
27412;SDS011;14871;52.702;5.230;2023-01-26T03:45:07;56.75;;;24.25;;
27412;SDS011;14871;52.702;5.230;2023-01-26T03:47:51;56.00;;;24.73;;
27412;SDS011;14871;52.702;5.230;2023-01-26T03:50:35;55.30;;;24.80;;
27412;SDS011;14871;52.702;5.230;2023-01-26T03:53:21;58.45;;;24.85;;
27412;SDS011;14871;52.702;5.230;2023-01-26T03:56:07;52.15;;;24.70;;
27412;SDS011;14871;52.702;5.230;2023-01-26T03:58:41;53.38;;;24.55;;
27412;SDS011;14871;52.702;5.230;2023-01-26T04:01:08;55.72;;;25.08;;
27412;SDS011;14871;52.702;5.230;2023-01-26T04:03:35;51.20;;;24.27;;
27412;SDS011;14871;52.702;5.230;2023-01-26T04:06:19;54.05;;;23.58;;
27412;SDS011;14871;52.702;5.230;2023-01-26T04:09:03;56.78;;;24.90;;
27412;SDS011;14871;52.702;5.230;2023-01-26T04:11:29;52.45;;;22.92;;
27412;SDS011;14871;52.702;5.230;2023-01-26T04:13:55;52.40;;;23.48;;
27412;SDS011;14871;52.702;5.230;2023-01-26T04:16:39;53.77;;;23.50;;
27412;SDS011;14871;52.702;5.230;2023-01-26T04:19:23;51.80;;;22.33;;
27412;SDS011;14871;52.702;5.230;2023-01-26T04:22:07;53.72;;;23.70;;
27412;SDS011;14871;52.702;5.230;2023-01-26T04:24:33;51.58;;;23.80;;
27412;SDS011;14871;52.702;5.230;2023-01-26T04:26:58;46.17;;;21.63;;
27412;SDS011;14871;52.702;5.230;2023-01-26T04:29:24;46.45;;;21.52;;
27412;SDS011;14871;52.702;5.230;2023-01-26T04:31:50;49.13;;;21.63;;
27412;SDS011;14871;52.702;5.230;2023-01-26T04:34:15;50.17;;;22.67;;
27412;SDS011;14871;52.702;5.230;2023-01-26T04:36:41;49.53;;;22.67;;
27412;SDS011;14871;52.702;5.230;2023-01-26T04:39:07;50.58;;;20.45;;
27412;SDS011;14871;52.702;5.230;2023-01-26T04:41:33;44.78;;;18.45;;
27412;SDS011;14871;52.702;5.230;2023-01-26T04:43:59;42.13;;;14.60;;
27412;SDS011;14871;52.702;5.230;2023-01-26T04:46:25;42.15;;;11.68;;
27412;SDS011;14871;52.702;5.230;2023-01-26T04:48:50;38.30;;;8.90;;
27412;SDS011;14871;52.702;5.230;2023-01-26T04:51:17;39.80;;;7.28;;
27412;SDS011;14871;52.702;5.230;2023-01-26T04:53:44;38.40;;;7.07;;
27412;SDS011;14871;52.702;5.230;2023-01-26T04:56:30;33.55;;;6.18;;
27412;SDS011;14871;52.702;5.230;2023-01-26T04:58:58;32.40;;;5.30;;
27412;SDS011;14871;52.702;5.230;2023-01-26T05:01:25;38.33;;;5.75;;
27412;SDS011;14871;52.702;5.230;2023-01-26T05:03:51;24.02;;;4.47;;
27412;SDS011;14871;52.702;5.230;2023-01-26T05:06:17;34.70;;;5.15;;
27412;SDS011;14871;52.702;5.230;2023-01-26T05:08:43;34.28;;;4.45;;
27412;SDS011;14871;52.702;5.230;2023-01-26T05:11:08;41.60;;;5.95;;
27412;SDS011;14871;52.702;5.230;2023-01-26T05:13:34;42.72;;;6.03;;
27412;SDS011;14871;52.702;5.230;2023-01-26T05:16:00;33.17;;;5.25;;
27412;SDS011;14871;52.702;5.230;2023-01-26T05:18:27;34.15;;;5.15;;
27412;SDS011;14871;52.702;5.230;2023-01-26T05:20:54;37.17;;;4.65;;
27412;SDS011;14871;52.702;5.230;2023-01-26T05:23:20;42.13;;;6.40;;
27412;SDS011;14871;52.702;5.230;2023-01-26T05:25:45;34.90;;;4.80;;
27412;SDS011;14871;52.702;5.230;2023-01-26T05:28:11;32.97;;;4.60;;
27412;SDS011;14871;52.702;5.230;2023-01-26T05:30:36;33.10;;;4.53;;
27412;SDS011;14871;52.702;5.230;2023-01-26T05:33:02;33.35;;;4.95;;
27412;SDS011;14871;52.702;5.230;2023-01-26T05:35:29;28.02;;;4.60;;
27412;SDS011;14871;52.702;5.230;2023-01-26T05:37:55;44.20;;;4.72;;
27412;SDS011;14871;52.702;5.230;2023-01-26T05:40:21;43.85;;;5.35;;
27412;SDS011;14871;52.702;5.230;2023-01-26T05:42:47;40.63;;;4.68;;
27412;SDS011;14871;52.702;5.230;2023-01-26T05:45:13;40.85;;;4.95;;
27412;SDS011;14871;52.702;5.230;2023-01-26T05:47:38;29.02;;;5.15;;
27412;SDS011;14871;52.702;5.230;2023-01-26T05:50:05;30.98;;;4.45;;
27412;SDS011;14871;52.702;5.230;2023-01-26T05:52:31;33.30;;;4.82;;
27412;SDS011;14871;52.702;5.230;2023-01-26T05:54:57;23.60;;;5.10;;
27412;SDS011;14871;52.702;5.230;2023-01-26T05:57:22;30.73;;;4.57;;
27412;SDS011;14871;52.702;5.230;2023-01-26T05:59:48;37.63;;;5.03;;
27412;SDS011;14871;52.702;5.230;2023-01-26T06:02:14;26.55;;;4.32;;
27412;SDS011;14871;52.702;5.230;2023-01-26T06:04:39;33.92;;;5.43;;
27412;SDS011;14871;52.702;5.230;2023-01-26T06:07:05;32.28;;;5.38;;
27412;SDS011;14871;52.702;5.230;2023-01-26T06:09:31;44.17;;;5.35;;
27412;SDS011;14871;52.702;5.230;2023-01-26T06:11:57;35.35;;;5.00;;
27412;SDS011;14871;52.702;5.230;2023-01-26T06:14:22;33.38;;;4.40;;
27412;SDS011;14871;52.702;5.230;2023-01-26T06:16:48;36.45;;;4.10;;
27412;SDS011;14871;52.702;5.230;2023-01-26T06:19:13;33.03;;;4.75;;
27412;SDS011;14871;52.702;5.230;2023-01-26T06:21:39;32.88;;;4.40;;
27412;SDS011;14871;52.702;5.230;2023-01-26T06:24:05;37.47;;;5.68;;
27412;SDS011;14871;52.702;5.230;2023-01-26T06:26:31;26.30;;;3.97;;
27412;SDS011;14871;52.702;5.230;2023-01-26T06:28:56;35.85;;;5.32;;
27412;SDS011;14871;52.702;5.230;2023-01-26T06:31:22;38.40;;;5.43;;
27412;SDS011;14871;52.702;5.230;2023-01-26T06:33:48;36.30;;;5.10;;
27412;SDS011;14871;52.702;5.230;2023-01-26T06:36:15;44.63;;;5.88;;
27412;SDS011;14871;52.702;5.230;2023-01-26T06:38:44;39.70;;;5.40;;
27412;SDS011;14871;52.702;5.230;2023-01-26T06:41:11;39.53;;;4.57;;
27412;SDS011;14871;52.702;5.230;2023-01-26T06:43:36;42.50;;;5.18;;
27412;SDS011;14871;52.702;5.230;2023-01-26T06:46:02;40.72;;;4.65;;
27412;SDS011;14871;52.702;5.230;2023-01-26T06:48:30;35.30;;;5.78;;
27412;SDS011;14871;52.702;5.230;2023-01-26T06:53:42;43.28;;;4.93;;
27412;SDS011;14871;52.702;5.230;2023-01-26T06:56:12;34.83;;;4.93;;
27412;SDS011;14871;52.702;5.230;2023-01-26T06:58:38;38.50;;;4.97;;
27412;SDS011;14871;52.702;5.230;2023-01-26T07:01:04;36.20;;;4.40;;
27412;SDS011;14871;52.702;5.230;2023-01-26T07:03:30;42.15;;;4.47;;
27412;SDS011;14871;52.702;5.230;2023-01-26T07:05:56;38.30;;;4.55;;
27412;SDS011;14871;52.702;5.230;2023-01-26T07:08:21;33.13;;;4.10;;
27412;SDS011;14871;52.702;5.230;2023-01-26T07:10:48;37.15;;;5.18;;
27412;SDS011;14871;52.702;5.230;2023-01-26T07:13:14;32.63;;;4.80;;
27412;SDS011;14871;52.702;5.230;2023-01-26T07:15:40;31.65;;;5.03;;
27412;SDS011;14871;52.702;5.230;2023-01-26T07:18:05;30.13;;;4.22;;
27412;SDS011;14871;52.702;5.230;2023-01-26T07:20:31;37.05;;;4.80;;
27412;SDS011;14871;52.702;5.230;2023-01-26T07:22:58;32.08;;;4.95;;
27412;SDS011;14871;52.702;5.230;2023-01-26T07:25:24;28.35;;;4.15;;
27412;SDS011;14871;52.702;5.230;2023-01-26T07:27:57;25.83;;;4.85;;
27412;SDS011;14871;52.702;5.230;2023-01-26T07:30:23;35.38;;;4.93;;
27412;SDS011;14871;52.702;5.230;2023-01-26T07:32:50;31.67;;;5.20;;
27412;SDS011;14871;52.702;5.230;2023-01-26T07:35:15;32.45;;;5.05;;
27412;SDS011;14871;52.702;5.230;2023-01-26T07:37:41;31.45;;;4.13;;
27412;SDS011;14871;52.702;5.230;2023-01-26T07:40:07;30.10;;;4.15;;
27412;SDS011;14871;52.702;5.230;2023-01-26T07:42:33;29.75;;;4.60;;
27412;SDS011;14871;52.702;5.230;2023-01-26T07:44:59;29.50;;;5.22;;
27412;SDS011;14871;52.702;5.230;2023-01-26T07:47:25;32.78;;;5.32;;
27412;SDS011;14871;52.702;5.230;2023-01-26T07:49:51;39.38;;;4.78;;
27412;SDS011;14871;52.702;5.230;2023-01-26T07:52:17;25.58;;;4.53;;
27412;SDS011;14871;52.702;5.230;2023-01-26T07:54:42;45.42;;;5.70;;
27412;SDS011;14871;52.702;5.230;2023-01-26T07:57:08;32.85;;;4.63;;
27412;SDS011;14871;52.702;5.230;2023-01-26T07:59:33;33.40;;;4.28;;
27412;SDS011;14871;52.702;5.230;2023-01-26T08:01:59;38.47;;;5.05;;
27412;SDS011;14871;52.702;5.230;2023-01-26T08:04:24;34.38;;;4.65;;
27412;SDS011;14871;52.702;5.230;2023-01-26T08:06:51;33.65;;;4.35;;
27412;SDS011;14871;52.702;5.230;2023-01-26T08:09:16;31.95;;;4.50;;
27412;SDS011;14871;52.702;5.230;2023-01-26T08:11:42;34.22;;;4.90;;
27412;SDS011;14871;52.702;5.230;2023-01-26T08:14:08;32.58;;;5.00;;
27412;SDS011;14871;52.702;5.230;2023-01-26T08:16:33;31.95;;;4.80;;
27412;SDS011;14871;52.702;5.230;2023-01-26T08:18:59;22.52;;;3.50;;
27412;SDS011;14871;52.702;5.230;2023-01-26T08:21:25;28.48;;;4.70;;
27412;SDS011;14871;52.702;5.230;2023-01-26T08:23:50;31.98;;;4.28;;
27412;SDS011;14871;52.702;5.230;2023-01-26T08:26:17;40.20;;;6.57;;
27412;SDS011;14871;52.702;5.230;2023-01-26T08:28:44;34.30;;;4.68;;
27412;SDS011;14871;52.702;5.230;2023-01-26T08:31:14;35.60;;;4.45;;
27412;SDS011;14871;52.702;5.230;2023-01-26T08:33:44;30.33;;;4.87;;
27412;SDS011;14871;52.702;5.230;2023-01-26T08:36:13;31.38;;;4.93;;
27412;SDS011;14871;52.702;5.230;2023-01-26T08:38:39;30.58;;;4.82;;
27412;SDS011;14871;52.702;5.230;2023-01-26T08:41:06;32.97;;;4.95;;
27412;SDS011;14871;52.702;5.230;2023-01-26T08:43:32;31.67;;;4.63;;
27412;SDS011;14871;52.702;5.230;2023-01-26T08:45:57;30.65;;;3.90;;
27412;SDS011;14871;52.702;5.230;2023-01-26T08:48:23;29.05;;;4.22;;
27412;SDS011;14871;52.702;5.230;2023-01-26T08:50:52;36.42;;;4.97;;
27412;SDS011;14871;52.702;5.230;2023-01-26T08:53:23;32.65;;;4.45;;
27412;SDS011;14871;52.702;5.230;2023-01-26T08:55:49;25.88;;;4.43;;
27412;SDS011;14871;52.702;5.230;2023-01-26T08:58:15;28.20;;;3.97;;
27412;SDS011;14871;52.702;5.230;2023-01-26T09:00:41;28.17;;;4.57;;
27412;SDS011;14871;52.702;5.230;2023-01-26T09:03:07;30.38;;;4.30;;
27412;SDS011;14871;52.702;5.230;2023-01-26T09:05:36;36.40;;;5.07;;
27412;SDS011;14871;52.702;5.230;2023-01-26T09:08:03;30.85;;;5.97;;
27412;SDS011;14871;52.702;5.230;2023-01-26T09:10:30;30.92;;;5.03;;
27412;SDS011;14871;52.702;5.230;2023-01-26T09:12:59;36.35;;;5.38;;
27412;SDS011;14871;52.702;5.230;2023-01-26T09:15:25;27.10;;;4.63;;
27412;SDS011;14871;52.702;5.230;2023-01-26T09:17:52;27.15;;;4.28;;
27412;SDS011;14871;52.702;5.230;2023-01-26T09:20:17;25.30;;;4.32;;
27412;SDS011;14871;52.702;5.230;2023-01-26T09:22:44;25.85;;;4.55;;
27412;SDS011;14871;52.702;5.230;2023-01-26T09:25:10;32.75;;;5.75;;
27412;SDS011;14871;52.702;5.230;2023-01-26T09:27:36;22.77;;;4.63;;
27412;SDS011;14871;52.702;5.230;2023-01-26T09:30:02;24.77;;;4.35;;
27412;SDS011;14871;52.702;5.230;2023-01-26T09:32:29;24.92;;;6.22;;
27412;SDS011;14871;52.702;5.230;2023-01-26T09:34:55;24.00;;;4.55;;
27412;SDS011;14871;52.702;5.230;2023-01-26T09:37:21;23.35;;;3.65;;
27412;SDS011;14871;52.702;5.230;2023-01-26T09:39:47;20.25;;;3.65;;
27412;SDS011;14871;52.702;5.230;2023-01-26T09:45:18;19.38;;;3.85;;
27412;SDS011;14871;52.702;5.230;2023-01-26T09:47:52;18.08;;;3.00;;
27412;SDS011;14871;52.702;5.230;2023-01-26T09:50:54;20.98;;;3.85;;
27412;SDS011;14871;52.702;5.230;2023-01-26T09:53:39;19.23;;;3.38;;
27412;SDS011;14871;52.702;5.230;2023-01-26T09:56:17;20.40;;;3.63;;
27412;SDS011;14871;52.702;5.230;2023-01-26T09:59:06;22.45;;;3.47;;
27412;SDS011;14871;52.702;5.230;2023-01-26T10:01:50;21.05;;;3.60;;
27412;SDS011;14871;52.702;5.230;2023-01-26T10:04:34;19.88;;;5.80;;
27412;SDS011;14871;52.702;5.230;2023-01-26T10:07:07;20.27;;;4.03;;
27412;SDS011;14871;52.702;5.230;2023-01-26T10:09:36;21.05;;;3.58;;
27412;SDS011;14871;52.702;5.230;2023-01-26T10:17:53;24.27;;;4.22;;
27412;SDS011;14871;52.702;5.230;2023-01-26T10:22:55;22.63;;;3.85;;
27412;SDS011;14871;52.702;5.230;2023-01-26T10:25:34;19.55;;;3.80;;
27412;SDS011;14871;52.702;5.230;2023-01-26T10:28:10;19.15;;;3.70;;
27412;SDS011;14871;52.702;5.230;2023-01-26T10:30:40;22.95;;;4.00;;
27412;SDS011;14871;52.702;5.230;2023-01-26T10:33:11;17.48;;;4.07;;
27412;SDS011;14871;52.702;5.230;2023-01-26T10:35:43;18.90;;;3.90;;
27412;SDS011;14871;52.702;5.230;2023-01-26T10:40:56;18.15;;;4.10;;
27412;SDS011;14871;52.702;5.230;2023-01-26T10:43:33;25.90;;;4.10;;
27412;SDS011;14871;52.702;5.230;2023-01-26T10:46:02;22.95;;;4.18;;
27412;SDS011;14871;52.702;5.230;2023-01-26T10:48:28;18.35;;;3.17;;
27412;SDS011;14871;52.702;5.230;2023-01-26T10:50:54;23.17;;;3.75;;
27412;SDS011;14871;52.702;5.230;2023-01-26T10:53:39;22.37;;;4.57;;
27412;SDS011;14871;52.702;5.230;2023-01-26T10:56:05;22.23;;;4.22;;
27412;SDS011;14871;52.702;5.230;2023-01-26T10:58:39;24.83;;;4.35;;
27412;SDS011;14871;52.702;5.230;2023-01-26T11:01:07;25.08;;;4.20;;
27412;SDS011;14871;52.702;5.230;2023-01-26T11:03:36;22.25;;;4.40;;
27412;SDS011;14871;52.702;5.230;2023-01-26T11:06:16;17.05;;;3.22;;
27412;SDS011;14871;52.702;5.230;2023-01-26T11:08:42;22.48;;;3.47;;
27412;SDS011;14871;52.702;5.230;2023-01-26T11:11:29;25.48;;;4.85;;
27412;SDS011;14871;52.702;5.230;2023-01-26T11:20:00;21.90;;;3.95;;
27412;SDS011;14871;52.702;5.230;2023-01-26T11:25:33;20.63;;;4.40;;
27412;SDS011;14871;52.702;5.230;2023-01-26T11:28:11;26.58;;;3.72;;
27412;SDS011;14871;52.702;5.230;2023-01-26T11:31:01;25.10;;;4.10;;
27412;SDS011;14871;52.702;5.230;2023-01-26T11:33:52;16.33;;;3.10;;
27412;SDS011;14871;52.702;5.230;2023-01-26T11:42:23;18.45;;;4.05;;
27412;SDS011;14871;52.702;5.230;2023-01-26T11:45:00;26.58;;;4.25;;
27412;SDS011;14871;52.702;5.230;2023-01-26T11:50:26;16.13;;;3.33;;
27412;SDS011;14871;52.702;5.230;2023-01-26T11:53:08;20.33;;;3.75;;
27412;SDS011;14871;52.702;5.230;2023-01-26T11:58:29;17.55;;;3.78;;
27412;SDS011;14871;52.702;5.230;2023-01-26T12:01:07;23.45;;;3.95;;
27412;SDS011;14871;52.702;5.230;2023-01-26T12:06:16;17.73;;;3.28;;
27412;SDS011;14871;52.702;5.230;2023-01-26T12:08:46;18.38;;;3.85;;
27412;SDS011;14871;52.702;5.230;2023-01-26T12:14:35;20.73;;;3.85;;
27412;SDS011;14871;52.702;5.230;2023-01-26T12:19:12;17.45;;;2.70;;
27412;SDS011;14871;52.702;5.230;2023-01-26T12:21:50;24.02;;;3.47;;
27412;SDS011;14871;52.702;5.230;2023-01-26T12:24:31;23.85;;;3.67;;
27412;SDS011;14871;52.702;5.230;2023-01-26T12:27:21;18.10;;;3.40;;
27412;SDS011;14871;52.702;5.230;2023-01-26T12:29:55;23.10;;;3.47;;
27412;SDS011;14871;52.702;5.230;2023-01-26T12:32:41;13.90;;;3.17;;
27412;SDS011;14871;52.702;5.230;2023-01-26T12:35:09;16.85;;;3.40;;
27412;SDS011;14871;52.702;5.230;2023-01-26T12:37:46;22.17;;;3.85;;
27412;SDS011;14871;52.702;5.230;2023-01-26T12:40:50;16.50;;;3.50;;
27412;SDS011;14871;52.702;5.230;2023-01-26T12:43:24;16.55;;;2.88;;
27412;SDS011;14871;52.702;5.230;2023-01-26T12:45:53;14.10;;;2.55;;
27412;SDS011;14871;52.702;5.230;2023-01-26T12:48:30;13.43;;;2.45;;
27412;SDS011;14871;52.702;5.230;2023-01-26T12:51:09;17.95;;;3.25;;
27412;SDS011;14871;52.702;5.230;2023-01-26T12:56:21;12.18;;;2.65;;
27412;SDS011;14871;52.702;5.230;2023-01-26T12:58:54;11.13;;;2.20;;
27412;SDS011;14871;52.702;5.230;2023-01-26T13:01:22;11.23;;;1.80;;
27412;SDS011;14871;52.702;5.230;2023-01-26T13:03:57;12.70;;;1.98;;
27412;SDS011;14871;52.702;5.230;2023-01-26T13:06:28;7.15;;;1.95;;
27412;SDS011;14871;52.702;5.230;2023-01-26T13:16:57;9.40;;;1.70;;
27412;SDS011;14871;52.702;5.230;2023-01-26T13:19:52;13.00;;;2.15;;
27412;SDS011;14871;52.702;5.230;2023-01-26T13:24:49;12.10;;;1.65;;
27412;SDS011;14871;52.702;5.230;2023-01-26T13:35:12;14.85;;;2.53;;
27412;SDS011;14871;52.702;5.230;2023-01-26T13:40:38;14.27;;;2.20;;
27412;SDS011;14871;52.702;5.230;2023-01-26T13:48:29;12.07;;;2.08;;
27412;SDS011;14871;52.702;5.230;2023-01-26T13:51:21;14.90;;;2.05;;
27412;SDS011;14871;52.702;5.230;2023-01-26T13:53:53;15.07;;;2.03;;
27412;SDS011;14871;52.702;5.230;2023-01-26T13:59:18;13.25;;;2.22;;
27412;SDS011;14871;52.702;5.230;2023-01-26T14:04:14;15.73;;;2.38;;
27412;SDS011;14871;52.702;5.230;2023-01-26T14:06:41;12.38;;;2.05;;
27412;SDS011;14871;52.702;5.230;2023-01-26T14:09:11;10.27;;;2.35;;
27412;SDS011;14871;52.702;5.230;2023-01-26T14:11:39;12.25;;;2.00;;
27412;SDS011;14871;52.702;5.230;2023-01-26T14:14:22;13.95;;;2.70;;
27412;SDS011;14871;52.702;5.230;2023-01-26T14:16:49;13.50;;;2.70;;
27412;SDS011;14871;52.702;5.230;2023-01-26T14:19:16;11.43;;;2.20;;
27412;SDS011;14871;52.702;5.230;2023-01-26T14:21:51;11.98;;;2.03;;
27412;SDS011;14871;52.702;5.230;2023-01-26T14:24:38;13.32;;;2.47;;
27412;SDS011;14871;52.702;5.230;2023-01-26T14:27:05;13.93;;;2.30;;
27412;SDS011;14871;52.702;5.230;2023-01-26T14:29:44;11.18;;;1.75;;
27412;SDS011;14871;52.702;5.230;2023-01-26T14:32:12;9.00;;;1.40;;
27412;SDS011;14871;52.702;5.230;2023-01-26T14:34:49;11.32;;;1.67;;
27412;SDS011;14871;52.702;5.230;2023-01-26T14:37:17;10.20;;;1.90;;
27412;SDS011;14871;52.702;5.230;2023-01-26T14:39:43;10.63;;;1.67;;
27412;SDS011;14871;52.702;5.230;2023-01-26T14:42:15;9.63;;;1.83;;
27412;SDS011;14871;52.702;5.230;2023-01-26T14:44:43;10.15;;;2.88;;
27412;SDS011;14871;52.702;5.230;2023-01-26T14:52:25;13.93;;;1.67;;
27412;SDS011;14871;52.702;5.230;2023-01-26T14:54:57;10.95;;;1.67;;
27412;SDS011;14871;52.702;5.230;2023-01-26T14:57:30;14.00;;;2.03;;
27412;SDS011;14871;52.702;5.230;2023-01-26T14:59:56;12.27;;;2.10;;
27412;SDS011;14871;52.702;5.230;2023-01-26T15:02:25;11.50;;;2.25;;
27412;SDS011;14871;52.702;5.230;2023-01-26T15:05:01;14.43;;;1.98;;
27412;SDS011;14871;52.702;5.230;2023-01-26T15:07:35;11.60;;;2.10;;
27412;SDS011;14871;52.702;5.230;2023-01-26T15:10:04;10.55;;;1.90;;
27412;SDS011;14871;52.702;5.230;2023-01-26T15:13:33;10.73;;;1.63;;
27412;SDS011;14871;52.702;5.230;2023-01-26T15:15:35;10.65;;;2.55;;
27412;SDS011;14871;52.702;5.230;2023-01-26T15:18:04;13.38;;;2.53;;
27412;SDS011;14871;52.702;5.230;2023-01-26T15:23:28;12.90;;;2.25;;
27412;SDS011;14871;52.702;5.230;2023-01-26T15:26:02;22.85;;;2.72;;
27412;SDS011;14871;52.702;5.230;2023-01-26T15:28:33;11.30;;;2.95;;
27412;SDS011;14871;52.702;5.230;2023-01-26T15:31:00;20.20;;;3.08;;
27412;SDS011;14871;52.702;5.230;2023-01-26T15:33:45;17.27;;;2.60;;
27412;SDS011;14871;52.702;5.230;2023-01-26T15:36:21;12.93;;;2.35;;
27412;SDS011;14871;52.702;5.230;2023-01-26T15:38:59;18.25;;;2.42;;
27412;SDS011;14871;52.702;5.230;2023-01-26T15:41:39;15.82;;;2.65;;
27412;SDS011;14871;52.702;5.230;2023-01-26T15:44:09;15.65;;;2.13;;
27412;SDS011;14871;52.702;5.230;2023-01-26T15:46:42;18.67;;;2.80;;
27412;SDS011;14871;52.702;5.230;2023-01-26T15:49:08;14.73;;;2.33;;
27412;SDS011;14871;52.702;5.230;2023-01-26T15:51:35;22.13;;;3.45;;
27412;SDS011;14871;52.702;5.230;2023-01-26T15:54:01;12.07;;;2.28;;
27412;SDS011;14871;52.702;5.230;2023-01-26T15:56:27;13.48;;;2.25;;
27412;SDS011;14871;52.702;5.230;2023-01-26T15:58:52;17.38;;;3.20;;
27412;SDS011;14871;52.702;5.230;2023-01-26T16:01:21;23.38;;;2.83;;
27412;SDS011;14871;52.702;5.230;2023-01-26T16:03:47;16.30;;;2.65;;
27412;SDS011;14871;52.702;5.230;2023-01-26T16:06:16;20.58;;;2.50;;
27412;SDS011;14871;52.702;5.230;2023-01-26T16:08:48;16.67;;;3.85;;
27412;SDS011;14871;52.702;5.230;2023-01-26T16:11:14;13.27;;;2.30;;
27412;SDS011;14871;52.702;5.230;2023-01-26T16:13:41;16.60;;;2.50;;
27412;SDS011;14871;52.702;5.230;2023-01-26T16:16:09;15.68;;;3.03;;
27412;SDS011;14871;52.702;5.230;2023-01-26T16:18:37;18.67;;;2.88;;
27412;SDS011;14871;52.702;5.230;2023-01-26T16:21:07;13.10;;;1.67;;